Time;durP1;ratioP1;P1;durP2;ratioP2;P2;SDS_P1;SDS_P2;PMS_P1;PMS_P2;Temp;Humidity;BMP_temperature;BMP_pressure;BME280_temperature;BME280_humidity;BME280_pressure;Samples;Min_cycle;Max_cycle;Signal;HPM_P1;HPM_P2
2021/11/26 00:01:22;;;;;;;43.13;23.17;;;;;;;2.96;82.46;99657.75;5018102;28;20068;-52
2021/11/26 00:03:48;;;;;;;41.03;23.08;;;;;;;2.93;82.75;99659.59;5030226;28;20067;-52
2021/11/26 00:06:15;;;;;;;39.60;23.17;;;;;;;2.92;82.99;99653.50;5024075;28;20049;-54
2021/11/26 00:08:41;;;;;;;41.42;23.27;;;;;;;2.88;83.05;99649.25;5025030;28;20045;-53
2021/11/26 00:11:08;;;;;;;38.00;21.75;;;;;;;2.90;83.15;99644.84;5021423;28;20058;-51
2021/11/26 00:13:48;;;;;;;43.67;23.80;;;;;;;2.86;83.14;99630.13;5025964;28;20053;-52
2021/11/26 00:16:18;;;;;;;43.85;23.27;;;;;;;2.85;83.31;99628.41;5025509;28;20049;-53
2021/11/26 00:18:54;;;;;;;42.33;23.85;;;;;;;2.83;83.65;99627.63;5020459;28;20711;-52
2021/11/26 00:21:21;;;;;;;44.55;22.88;;;;;;;2.83;83.23;99625.84;5017616;28;20065;-53
2021/11/26 00:23:47;;;;;;;42.63;23.10;;;;;;;2.78;83.76;99626.88;5028628;28;20053;-52
2021/11/26 00:26:14;;;;;;;38.75;22.65;;;;;;;2.76;83.85;99619.06;5024542;28;20064;-53
2021/11/26 00:28:40;;;;;;;39.55;22.17;;;;;;;2.70;84.33;99615.75;5023574;28;20049;-54
2021/11/26 00:31:06;;;;;;;43.72;24.00;;;;;;;2.54;84.63;99599.63;5023591;28;20053;-53
2021/11/26 00:33:33;;;;;;;40.10;22.80;;;;;;;2.58;84.87;99609.13;5026550;28;20091;-51
2021/11/26 00:36:00;;;;;;;43.38;23.80;;;;;;;2.55;84.73;99597.88;5027091;28;20052;-52
2021/11/26 00:38:27;;;;;;;40.88;22.67;;;;;;;2.51;85.47;99602.34;5018907;28;20049;-52
2021/11/26 00:40:53;;;;;;;42.40;23.95;;;;;;;2.48;85.23;99594.59;5022030;28;20045;-52
2021/11/26 00:43:20;;;;;;;43.63;23.10;;;;;;;2.45;85.79;99592.91;5024909;28;20045;-53
2021/11/26 00:45:49;;;;;;;44.95;23.88;;;;;;;2.43;85.56;99593.84;5034520;28;20100;-53
2021/11/26 00:48:15;;;;;;;45.53;24.55;;;;;;;2.42;85.96;99587.78;5033120;28;20716;-52
2021/11/26 00:50:43;;;;;;;43.90;24.20;;;;;;;2.39;86.58;99580.00;5028649;28;20061;-56
2021/11/26 00:53:09;;;;;;;44.33;24.25;;;;;;;2.35;86.93;99590.59;5030188;28;20042;-54
2021/11/26 00:55:36;;;;;;;43.42;24.73;;;;;;;2.32;86.52;99577.63;5033069;28;20727;-52
2021/11/26 00:58:02;;;;;;;40.65;22.85;;;;;;;2.31;87.13;99578.50;5031318;28;20048;-56
2021/11/26 01:00:31;;;;;;;41.38;22.90;;;;;;;2.29;87.97;99568.09;5023514;28;20835;-53
2021/11/26 01:02:59;;;;;;;45.25;24.75;;;;;;;2.25;87.51;99568.22;5023825;28;20072;-53
2021/11/26 01:05:25;;;;;;;45.20;24.63;;;;;;;2.19;87.42;99557.94;5006395;28;20153;-54
2021/11/26 01:07:52;;;;;;;46.55;23.85;;;;;;;2.15;88.16;99551.06;5028448;28;20137;-52
2021/11/26 01:10:20;;;;;;;49.83;25.75;;;;;;;2.12;88.14;99557.22;5017417;28;20061;-53
2021/11/26 01:12:48;;;;;;;50.63;25.23;;;;;;;2.05;89.05;99543.47;5025650;28;20049;-53
2021/11/26 01:15:18;;;;;;;48.65;26.50;;;;;;;2.04;88.78;99548.75;5026388;28;20053;-56
2021/11/26 01:17:45;;;;;;;49.97;25.60;;;;;;;2.00;89.53;99537.53;5022806;28;20056;-54
2021/11/26 01:20:19;;;;;;;46.15;24.02;;;;;;;1.98;89.62;99533.22;5010992;28;20057;-52
2021/11/26 01:22:45;;;;;;;47.72;25.10;;;;;;;2.05;88.84;99529.53;5026028;28;20045;-53
2021/11/26 01:25:13;;;;;;;45.15;24.20;;;;;;;1.93;89.06;99519.44;5026907;28;20046;-52
2021/11/26 01:27:41;;;;;;;45.47;24.42;;;;;;;1.97;89.20;99537.59;5021137;28;20056;-53
2021/11/26 01:30:15;;;;;;;47.08;25.77;;;;;;;1.97;89.52;99532.38;5017005;28;20048;-54
2021/11/26 01:32:42;;;;;;;48.20;25.63;;;;;;;2.00;89.52;99531.44;5024282;28;20056;-51
2021/11/26 01:35:09;;;;;;;46.08;24.35;;;;;;;1.98;90.07;99528.88;5026659;28;20192;-52
2021/11/26 01:37:35;;;;;;;51.15;25.70;;;;;;;1.96;89.54;99524.59;5022540;28;20068;-52
2021/11/26 01:40:03;;;;;;;51.15;26.17;;;;;;;1.90;89.92;99519.50;5018228;28;20053;-53
2021/11/26 01:42:30;;;;;;;49.33;25.65;;;;;;;1.86;90.39;99513.53;5022139;28;20056;-54
2021/11/26 01:44:57;;;;;;;48.08;24.60;;;;;;;1.95;90.56;99512.41;5026669;28;20041;-53
2021/11/26 01:47:23;;;;;;;50.65;24.92;;;;;;;1.95;90.09;99504.59;5024579;28;20050;-53
2021/11/26 01:49:50;;;;;;;49.53;25.63;;;;;;;1.87;90.20;99501.34;5014778;28;20053;-56
2021/11/26 01:52:16;;;;;;;46.90;26.45;;;;;;;1.71;90.55;99490.44;5020432;28;20047;-57
2021/11/26 01:54:43;;;;;;;49.92;26.65;;;;;;;1.78;90.81;99507.63;5027942;28;20041;-53
2021/11/26 01:57:10;;;;;;;50.20;27.15;;;;;;;1.77;91.22;99503.31;5025137;28;20045;-55
2021/11/26 01:59:37;;;;;;;52.92;26.85;;;;;;;1.78;91.98;99502.41;5014928;28;20769;-53
2021/11/26 02:02:03;;;;;;;49.15;26.15;;;;;;;1.84;91.27;99498.81;5021383;28;20045;-52
2021/11/26 02:04:30;;;;;;;52.65;26.17;;;;;;;1.88;91.81;99493.47;5027017;28;20049;-55
2021/11/26 02:06:56;;;;;;;50.72;25.23;;;;;;;1.89;91.82;99487.31;5016654;28;20143;-51
2021/11/26 02:09:23;;;;;;;56.13;27.38;;;;;;;1.85;91.22;99479.63;5024357;28;20145;-54
2021/11/26 02:11:50;;;;;;;50.58;26.23;;;;;;;1.82;91.02;99490.16;5024412;28;20056;-52
2021/11/26 02:14:16;;;;;;;52.03;26.30;;;;;;;1.80;91.58;99486.72;5024765;28;20045;-53
2021/11/26 02:16:48;;;;;;;51.67;27.35;;;;;;;1.79;91.34;99490.22;5026764;28;20061;-53
2021/11/26 02:19:15;;;;;;;48.38;26.42;;;;;;;1.86;90.83;99487.44;5019481;28;20050;-53
2021/11/26 02:21:42;;;;;;;47.50;25.55;;;;;;;1.91;91.18;99490.75;5011665;28;20042;-53
2021/11/26 02:24:11;;;;;;;49.80;26.52;;;;;;;1.95;90.40;99489.78;5026498;28;20045;-54
2021/11/26 02:26:44;;;;;;;53.67;26.85;;;;;;;1.99;90.35;99485.34;5019685;28;20125;-53
2021/11/26 02:29:12;;;;;;;51.13;25.98;;;;;;;2.00;90.31;99487.06;5016632;28;20067;-52
2021/11/26 02:31:38;;;;;;;52.67;26.33;;;;;;;2.07;89.78;99478.13;5020069;28;20045;-51
2021/11/26 02:34:05;;;;;;;51.78;26.85;;;;;;;2.08;89.83;99478.09;5022838;28;20045;-54
2021/11/26 02:36:32;;;;;;;51.83;26.23;;;;;;;2.10;89.82;99476.31;5022021;28;20045;-52
2021/11/26 02:38:59;;;;;;;51.25;26.80;;;;;;;2.14;89.25;99469.25;5028012;28;20136;-57
2021/11/26 02:41:26;;;;;;;47.72;25.92;;;;;;;2.13;89.76;99469.28;5017859;28;20050;-62
2021/11/26 02:43:52;;;;;;;51.00;27.27;;;;;;;2.16;89.61;99462.25;5025759;28;20049;-51
2021/11/26 02:46:19;;;;;;;50.85;25.50;;;;;;;2.18;89.25;99464.81;5025366;28;20068;-55
2021/11/26 02:48:46;;;;;;;47.45;25.25;;;;;;;2.20;89.55;99460.41;5026898;28;20045;-51
2021/11/26 02:51:13;;;;;;;50.88;26.33;;;;;;;2.18;89.80;99449.16;5014380;28;20049;-52
2021/11/26 02:53:40;;;;;;;49.25;25.77;;;;;;;2.21;89.37;99447.28;5026361;28;20471;-55
2021/11/26 02:56:06;;;;;;;49.40;25.30;;;;;;;2.27;89.42;99446.25;5028046;28;20495;-53
2021/11/26 02:58:33;;;;;;;51.25;27.02;;;;;;;2.25;89.46;99448.91;5023265;28;20041;-54
2021/11/26 03:01:00;;;;;;;50.78;25.80;;;;;;;2.28;89.54;99442.75;5016138;28;20046;-54
2021/11/26 03:03:27;;;;;;;54.30;28.00;;;;;;;2.25;89.56;99433.22;5026189;28;20456;-54
2021/11/26 03:05:59;;;;;;;50.17;26.63;;;;;;;2.26;89.40;99424.50;5022162;28;20439;-51
2021/11/26 03:08:26;;;;;;;51.47;26.42;;;;;;;2.25;89.14;99428.00;5026178;28;20053;-53
2021/11/26 03:10:53;;;;;;;51.83;26.38;;;;;;;2.28;89.00;99422.72;5015535;28;20038;-56
2021/11/26 03:13:19;;;;;;;50.13;26.60;;;;;;;2.28;88.95;99411.41;5021798;28;20041;-53
2021/11/26 03:15:46;;;;;;;52.65;27.13;;;;;;;2.27;89.14;99396.63;5026750;28;20042;-52
2021/11/26 03:18:16;;;;;;;47.65;25.48;;;;;;;2.31;89.50;99390.41;5024179;28;20045;-52
2021/11/26 03:20:43;;;;;;;52.13;27.13;;;;;;;2.21;89.72;99374.13;5021124;28;20038;-53
2021/11/26 03:23:10;;;;;;;47.38;25.55;;;;;;;2.20;90.23;99375.06;5026574;28;20046;-53
2021/11/26 03:25:37;;;;;;;51.67;26.98;;;;;;;2.21;90.34;99374.13;5030620;28;20041;-53
2021/11/26 03:28:03;;;;;;;55.50;27.55;;;;;;;2.20;89.95;99371.59;5023700;28;20047;-53
2021/11/26 03:30:30;;;;;;;47.10;26.13;;;;;;;2.23;89.97;99374.97;5019795;28;20057;-52
2021/11/26 03:32:56;;;;;;;54.85;27.48;;;;;;;2.24;89.26;99379.28;5017973;28;20037;-52
2021/11/26 03:35:24;;;;;;;52.38;27.17;;;;;;;2.23;89.55;99374.97;5030553;28;20225;-52
2021/11/26 03:37:50;;;;;;;50.42;25.67;;;;;;;2.29;89.58;99372.19;5026230;28;20084;-52
2021/11/26 03:40:19;;;;;;;53.22;27.73;;;;;;;2.19;89.32;99357.69;5019960;28;20049;-52
2021/11/26 03:42:46;;;;;;;51.17;26.35;;;;;;;2.26;89.15;99368.78;5017368;28;20056;-52
2021/11/26 03:45:14;;;;;;;52.72;27.38;;;;;;;2.22;89.69;99357.56;5029301;28;20499;-53
2021/11/26 03:47:41;;;;;;;50.92;26.33;;;;;;;2.22;89.77;99364.53;5029812;28;20047;-55
2021/11/26 03:50:09;;;;;;;54.35;26.10;;;;;;;2.25;90.60;99354.88;5024986;28;20493;-60
2021/11/26 03:52:36;;;;;;;53.38;26.83;;;;;;;2.29;89.90;99356.50;5026710;28;20049;-52
2021/11/26 03:55:05;;;;;;;50.95;26.90;;;;;;;2.30;89.41;99355.59;5032152;28;20042;-54
2021/11/26 03:57:32;;;;;;;54.67;28.35;;;;;;;2.24;89.78;99353.16;5026680;28;20128;-52
2021/11/26 03:59:58;;;;;;;55.90;27.23;;;;;;;2.13;90.64;99354.38;5029885;28;20052;-52
2021/11/26 04:02:25;;;;;;;50.97;26.42;;;;;;;2.10;90.75;99347.50;5022235;28;20052;-53
2021/11/26 04:04:51;;;;;;;54.05;27.60;;;;;;;2.11;91.19;99354.44;5029301;28;20067;-52
2021/11/26 04:07:18;;;;;;;54.38;27.45;;;;;;;2.12;91.03;99353.53;5029123;28;20045;-51
2021/11/26 04:09:44;;;;;;;54.67;27.52;;;;;;;2.16;90.88;99354.31;5023931;28;20042;-54
2021/11/26 04:12:10;;;;;;;55.22;26.88;;;;;;;2.17;90.50;99349.03;5013023;28;20052;-52
2021/11/26 04:14:39;;;;;;;57.38;27.23;;;;;;;2.12;90.76;99353.53;5029926;28;20061;-52
2021/11/26 04:17:10;;;;;;;61.65;28.13;;;;;;;2.06;91.17;99344.09;5026991;28;20045;-52
2021/11/26 04:19:38;;;;;;;54.65;27.13;;;;;;;2.06;91.16;99341.50;5027275;28;20037;-50
2021/11/26 04:22:05;;;;;;;60.08;27.98;;;;;;;2.09;91.48;99336.19;5017858;28;20053;-52
2021/11/26 04:24:32;;;;;;;59.42;27.35;;;;;;;2.14;91.63;99332.59;5030172;28;20045;-54
2021/11/26 04:26:58;;;;;;;54.42;26.80;;;;;;;2.18;91.09;99332.47;5020237;28;20145;-54
2021/11/26 04:29:25;;;;;;;51.17;26.65;;;;;;;2.27;91.04;99326.94;5027527;28;20132;-52
2021/11/26 04:31:51;;;;;;;53.15;26.25;;;;;;;2.30;90.61;99319.03;5015619;28;20541;-53
2021/11/26 04:34:18;;;;;;;51.25;26.35;;;;;;;2.24;90.61;99313.97;5028604;28;20045;-55
2021/11/26 04:36:46;;;;;;;57.88;27.10;;;;;;;2.17;90.95;99314.22;5025764;28;20131;-54
2021/11/26 04:39:12;;;;;;;49.80;26.20;;;;;;;2.13;90.88;99313.47;5027368;28;20104;-53
2021/11/26 04:41:39;;;;;;;50.22;26.63;;;;;;;2.11;91.19;99310.03;5017751;28;20069;-52
2021/11/26 04:44:05;;;;;;;51.17;26.45;;;;;;;2.10;92.02;99303.97;5025194;28;20048;-52
2021/11/26 04:46:32;;;;;;;56.53;28.05;;;;;;;2.10;92.03;99292.66;5025024;28;20499;-53
2021/11/26 04:48:58;;;;;;;52.45;26.55;;;;;;;2.05;91.06;99284.09;5028005;28;20056;-52
2021/11/26 04:51:26;;;;;;;49.25;26.42;;;;;;;2.17;90.93;99298.56;5018678;28;20049;-53
2021/11/26 04:53:52;;;;;;;46.05;25.00;;;;;;;2.21;91.20;99303.63;5028259;28;20145;-52
2021/11/26 04:56:19;;;;;;;46.38;24.42;;;;;;;2.21;90.26;99293.16;5024562;28;20121;-52
2021/11/26 04:58:45;;;;;;;50.45;27.13;;;;;;;2.18;90.28;99290.69;5025371;28;20422;-53
2021/11/26 05:01:12;;;;;;;55.47;28.42;;;;;;;2.18;90.94;99289.81;5018854;28;20422;-53
2021/11/26 05:03:38;;;;;;;53.33;25.90;;;;;;;2.17;90.48;99285.50;5024852;28;20058;-51
2021/11/26 05:06:05;;;;;;;51.20;27.02;;;;;;;2.15;90.53;99274.25;5022926;28;20132;-52
2021/11/26 05:08:32;;;;;;;49.75;26.17;;;;;;;2.11;90.16;99263.88;5023857;28;20064;-53
2021/11/26 05:10:59;;;;;;;54.40;27.65;;;;;;;2.10;90.21;99266.53;5017772;28;20063;-52
2021/11/26 05:13:29;;;;;;;52.10;26.90;;;;;;;2.07;90.27;99270.09;5022622;28;20045;-53
2021/11/26 05:15:57;;;;;;;38.45;20.52;;;;;;;2.11;89.34;99270.88;5026550;28;20537;-53
2021/11/26 05:18:23;;;;;;;48.95;25.67;;;;;;;2.03;90.12;99250.22;5022621;28;20048;-51
2021/11/26 05:20:51;;;;;;;55.38;27.08;;;;;;;2.17;89.23;99268.06;5019565;28;20038;-55
2021/11/26 05:23:19;;;;;;;51.47;26.80;;;;;;;2.18;89.59;99271.53;5018631;28;20540;-53
2021/11/26 05:25:46;;;;;;;46.60;25.02;;;;;;;2.19;88.98;99268.88;5025418;28;20052;-55
2021/11/26 05:28:13;;;;;;;50.10;25.42;;;;;;;2.19;88.54;99263.66;5023070;28;20494;-53
2021/11/26 05:30:40;;;;;;;53.67;26.52;;;;;;;2.19;88.91;99262.81;5023678;28;20068;-53
2021/11/26 05:33:07;;;;;;;51.95;25.60;;;;;;;2.18;88.51;99242.81;5022858;28;20042;-52
2021/11/26 05:35:35;;;;;;;51.88;25.85;;;;;;;2.21;88.55;99248.78;5028172;28;20045;-56
2021/11/26 05:38:03;;;;;;;49.22;26.52;;;;;;;2.20;88.55;99249.72;5016719;28;20049;-53
2021/11/26 05:40:29;;;;;;;51.65;25.75;;;;;;;2.22;88.42;99244.41;5020226;28;20041;-53
2021/11/26 05:42:56;;;;;;;50.15;26.55;;;;;;;2.23;88.87;99235.66;5019065;28;20136;-52
2021/11/26 05:45:23;;;;;;;49.35;25.73;;;;;;;2.24;89.32;99235.63;5026640;28;20045;-53
2021/11/26 05:47:50;;;;;;;50.97;26.17;;;;;;;2.26;89.51;99230.34;5026959;28;20045;-52
2021/11/26 05:50:18;;;;;;;53.42;26.15;;;;;;;2.25;89.34;99226.88;5024140;28;20049;-52
2021/11/26 05:52:45;;;;;;;50.45;27.08;;;;;;;2.17;89.45;99218.47;5017745;28;20136;-58
2021/11/26 05:55:15;;;;;;;53.60;26.50;;;;;;;2.29;89.68;99235.47;5027176;28;20054;-53
2021/11/26 05:57:43;;;;;;;52.97;26.95;;;;;;;2.36;88.44;99232.59;5025026;28;20461;-52
2021/11/26 06:00:12;;;;;;;53.30;26.20;;;;;;;2.32;88.44;99225.81;5027737;28;20591;-51
2021/11/26 06:02:40;;;;;;;52.13;27.52;;;;;;;2.31;88.11;99224.09;5016595;28;20041;-51
2021/11/26 06:05:07;;;;;;;50.45;27.30;;;;;;;2.32;88.26;99222.34;5022307;28;20057;-55
2021/11/26 06:07:34;;;;;;;55.13;26.73;;;;;;;2.29;88.49;99223.28;5025244;28;20569;-52
2021/11/26 06:10:03;;;;;;;54.58;28.00;;;;;;;2.29;88.27;99225.91;5021975;28;20046;-57
2021/11/26 06:12:29;;;;;;;55.10;27.83;;;;;;;2.24;88.12;99211.25;5016313;28;20048;-54
2021/11/26 06:14:56;;;;;;;52.97;26.95;;;;;;;2.32;88.13;99215.34;5024520;28;20502;-53
2021/11/26 06:17:22;;;;;;;50.33;26.75;;;;;;;2.33;88.00;99211.84;5024721;28;20068;-53
2021/11/26 06:19:49;;;;;;;51.90;27.58;;;;;;;2.34;87.82;99210.94;5021970;28;20052;-56
2021/11/26 06:22:15;;;;;;;50.47;26.67;;;;;;;2.37;87.44;99202.97;5014232;28;20096;-53
2021/11/26 06:24:42;;;;;;;51.88;26.73;;;;;;;2.39;88.01;99195.09;5027990;28;20048;-51
2021/11/26 06:27:09;;;;;;;52.28;27.48;;;;;;;2.40;87.67;99192.44;5018478;28;20046;-53
2021/11/26 06:29:36;;;;;;;56.92;28.30;;;;;;;2.46;88.15;99192.25;5026168;28;20049;-52
2021/11/26 06:32:03;;;;;;;53.70;27.08;;;;;;;2.39;86.97;99169.81;5012263;28;20050;-51
2021/11/26 06:34:29;;;;;;;51.05;27.00;;;;;;;2.49;87.55;99174.75;5027399;28;20045;-53
2021/11/26 06:36:56;;;;;;;51.60;26.88;;;;;;;2.53;86.58;99171.09;5019844;28;20050;-52
2021/11/26 06:39:22;;;;;;;51.28;26.55;;;;;;;2.49;87.00;99169.53;5024749;28;20045;-54
2021/11/26 06:41:50;;;;;;;50.80;27.00;;;;;;;2.43;87.34;99167.97;5015238;28;20499;-54
2021/11/26 06:44:16;;;;;;;52.45;26.60;;;;;;;2.43;87.21;99170.56;5025988;28;20048;-53
2021/11/26 06:46:43;;;;;;;53.75;26.38;;;;;;;2.43;87.82;99160.97;5032276;28;20067;-53
2021/11/26 06:49:10;;;;;;;56.10;28.40;;;;;;;2.43;87.68;99154.91;5028965;28;20041;-51
2021/11/26 06:51:36;;;;;;;49.38;25.08;;;;;;;2.50;87.86;99166.00;5020508;28;20057;-53
2021/11/26 06:54:03;;;;;;;52.88;26.98;;;;;;;2.55;87.25;99154.47;5025763;28;20123;-52
2021/11/26 06:56:29;;;;;;;52.42;27.02;;;;;;;2.51;87.40;99152.03;5026936;28;20049;-53
2021/11/26 06:58:58;;;;;;;51.20;26.27;;;;;;;2.49;87.71;99139.03;5027304;28;20061;-52
2021/11/26 07:01:25;;;;;;;50.47;26.67;;;;;;;2.49;87.75;99139.03;5016239;28;20816;-52
2021/11/26 07:03:54;;;;;;;53.22;27.20;;;;;;;2.45;88.16;99130.44;5024883;28;20132;-56
2021/11/26 07:06:21;;;;;;;51.70;27.38;;;;;;;2.35;87.76;99122.97;5023642;28;20069;-53
2021/11/26 07:08:48;;;;;;;55.58;27.70;;;;;;;2.31;88.37;99131.81;5028045;28;20044;-52
2021/11/26 07:11:14;;;;;;;57.00;28.02;;;;;;;2.32;88.73;99123.94;5019154;28;20072;-53
2021/11/26 07:13:41;;;;;;;49.65;26.02;;;;;;;2.42;88.69;99117.47;5018260;28;20048;-57
2021/11/26 07:16:07;;;;;;;54.33;27.95;;;;;;;2.44;88.27;99120.88;5024794;28;20057;-53
2021/11/26 07:18:34;;;;;;;45.22;24.98;;;;;;;2.57;87.10;99126.53;5026908;28;20056;-52
2021/11/26 07:21:00;;;;;;;51.83;26.27;;;;;;;2.57;86.73;99117.84;5020234;28;20153;-55
2021/11/26 07:23:27;;;;;;;51.10;26.38;;;;;;;2.58;86.76;99117.78;5020436;28;20052;-52
2021/11/26 07:25:53;;;;;;;51.85;26.45;;;;;;;2.55;86.89;99107.44;5016773;28;20053;-59
2021/11/26 07:28:22;;;;;;;48.25;25.65;;;;;;;2.47;86.46;99085.97;5017930;28;20053;-51
2021/11/26 07:30:48;;;;;;;51.67;25.50;;;;;;;2.62;85.75;99103.72;5024167;28;20499;-51
2021/11/26 07:33:15;;;;;;;47.63;25.15;;;;;;;2.72;86.20;99106.84;5014509;28;20045;-52
2021/11/26 07:35:41;;;;;;;51.85;27.00;;;;;;;2.74;85.28;99111.13;5025595;28;20048;-52
2021/11/26 07:38:08;;;;;;;50.25;26.05;;;;;;;2.71;85.28;99100.75;5014553;28;20051;-53
2021/11/26 07:40:34;;;;;;;50.97;25.98;;;;;;;2.71;86.25;99107.75;5022773;28;20049;-53
2021/11/26 07:43:01;;;;;;;52.88;26.05;;;;;;;2.77;85.95;99097.94;5011621;28;20406;-52
2021/11/26 07:45:27;;;;;;;50.63;26.27;;;;;;;2.79;85.95;99100.50;5022584;28;20125;-54
2021/11/26 07:47:54;;;;;;;47.50;25.13;;;;;;;2.85;85.91;99097.66;5020534;28;20057;-52
2021/11/26 07:50:20;;;;;;;49.67;25.98;;;;;;;2.91;85.52;99088.75;5017868;28;20040;-54
2021/11/26 07:52:47;;;;;;;48.53;26.20;;;;;;;2.97;84.13;99089.38;5009924;28;20057;-52
2021/11/26 07:55:14;;;;;;;47.47;25.35;;;;;;;2.96;84.51;99085.06;5023535;28;20773;-52
2021/11/26 07:57:44;;;;;;;51.38;26.45;;;;;;;2.88;84.99;99078.38;5021329;28;20116;-53
2021/11/26 08:00:12;;;;;;;53.65;28.40;;;;;;;2.87;84.52;99077.53;5021047;28;20124;-52
2021/11/26 08:02:39;;;;;;;47.05;25.40;;;;;;;2.86;84.58;99074.97;5006434;28;20049;-52
2021/11/26 08:05:06;;;;;;;47.50;25.70;;;;;;;2.90;85.04;99071.34;5023700;28;20056;-57
2021/11/26 08:07:33;;;;;;;53.30;26.90;;;;;;;2.97;84.56;99080.69;5010142;28;20503;-53
2021/11/26 08:10:01;;;;;;;46.30;25.75;;;;;;;2.98;84.73;99075.41;5023396;28;20045;-53
2021/11/26 08:12:28;;;;;;;47.42;25.35;;;;;;;3.05;83.81;99068.16;5010972;28;20685;-53
2021/11/26 08:14:54;;;;;;;49.53;25.48;;;;;;;2.98;84.31;99075.41;5015232;28;20495;-53
2021/11/26 08:17:21;;;;;;;46.58;25.25;;;;;;;3.03;84.20;99072.59;5022287;28;20038;-52
2021/11/26 08:19:47;;;;;;;54.17;26.27;;;;;;;3.00;83.95;99060.47;5016943;28;20055;-52
2021/11/26 08:22:30;;;;;;;49.63;25.75;;;;;;;3.08;84.15;99070.66;5006288;28;20041;-56
2021/11/26 08:24:57;;;;;;;48.13;26.58;;;;;;;3.14;84.26;99050.38;5017817;28;20419;-54
2021/11/26 08:27:23;;;;;;;45.13;24.70;;;;;;;3.12;82.68;99027.81;5008717;28;20056;-53
2021/11/26 08:29:50;;;;;;;44.97;24.70;;;;;;;3.21;83.17;99037.03;5024441;28;20042;-52
2021/11/26 08:32:16;;;;;;;46.08;25.38;;;;;;;3.26;83.18;99037.72;5007948;28;20189;-50
2021/11/26 08:34:43;;;;;;;46.45;25.35;;;;;;;3.29;83.42;99041.06;5011213;28;20045;-52
2021/11/26 08:37:09;;;;;;;47.15;26.00;;;;;;;3.37;83.46;99025.06;5017394;28;20057;-52
2021/11/26 08:39:36;;;;;;;47.50;24.90;;;;;;;3.42;83.08;99017.91;5018365;28;20051;-52
2021/11/26 08:42:03;;;;;;;47.70;25.92;;;;;;;3.60;81.66;99021.53;5016579;28;20050;-54
2021/11/26 08:44:29;;;;;;;45.40;24.42;;;;;;;3.55;81.36;99011.25;5008230;28;20060;-54
2021/11/26 08:46:56;;;;;;;46.20;25.20;;;;;;;3.47;81.45;99001.06;5019092;28;20849;-52
2021/11/26 08:49:22;;;;;;;40.75;23.83;;;;;;;3.56;81.62;99005.09;5020160;28;20533;-53
2021/11/26 08:51:51;;;;;;;43.30;24.85;;;;;;;3.59;80.59;98999.75;5019007;28;20048;-52
2021/11/26 08:54:23;;;;;;;47.33;24.77;;;;;;;3.57;81.47;99000.72;5009521;28;20042;-51
2021/11/26 08:56:53;;;;;;;46.38;25.77;;;;;;;3.65;81.17;99002.09;5016093;28;20050;-52
2021/11/26 08:59:19;;;;;;;40.70;22.87;;;;;;;3.73;81.12;98986.09;5018302;28;20388;-52
2021/11/26 09:01:48;;;;;;;44.33;24.88;;;;;;;3.92;81.19;98991.41;5011011;28;20571;-53
2021/11/26 09:04:15;;;;;;;43.30;24.42;;;;;;;4.13;79.85;98987.84;5014669;28;20059;-52
2021/11/26 09:06:41;;;;;;;42.33;23.63;;;;;;;4.20;79.90;98990.16;5012863;28;20060;-55
2021/11/26 09:09:08;;;;;;;41.70;24.70;;;;;;;4.34;78.78;98984.31;5017173;28;20046;-52
2021/11/26 09:11:34;;;;;;;44.50;24.23;;;;;;;4.30;77.91;98989.75;5018264;28;20422;-52
2021/11/26 09:14:04;;;;;;;43.83;24.35;;;;;;;4.23;78.71;98984.78;5010995;28;20530;-51
2021/11/26 09:16:33;;;;;;;43.50;24.27;;;;;;;4.29;78.52;98981.03;5015589;28;20042;-52
2021/11/26 09:19:00;;;;;;;44.60;24.17;;;;;;;4.22;78.58;98969.97;5020091;28;20052;-52
2021/11/26 09:21:27;;;;;;;43.88;24.15;;;;;;;4.15;78.51;98975.53;5017585;28;20051;-55
2021/11/26 09:23:54;;;;;;;44.72;23.85;;;;;;;4.08;78.95;98972.34;5009274;28;20049;-52
2021/11/26 09:26:20;;;;;;;43.33;23.92;;;;;;;4.02;79.31;98971.75;5020325;28;20034;-53
2021/11/26 09:28:47;;;;;;;39.17;23.15;;;;;;;4.03;79.11;98960.38;5023734;28;20514;-53
2021/11/26 09:31:14;;;;;;;40.47;22.70;;;;;;;4.13;78.71;98959.03;5022758;28;20041;-52
2021/11/26 09:33:40;;;;;;;42.85;24.30;;;;;;;4.10;79.09;98949.53;5010890;28;20052;-52
2021/11/26 09:36:08;;;;;;;42.03;23.45;;;;;;;4.10;79.36;98954.78;5011394;28;20056;-53
2021/11/26 09:38:38;;;;;;;45.60;24.33;;;;;;;4.13;79.08;98953.78;5016678;28;20505;-52
2021/11/26 09:41:09;;;;;;;41.22;24.05;;;;;;;4.15;78.84;98954.59;5019307;28;20044;-53
2021/11/26 09:43:59;;;;;;;41.35;22.90;;;;;;;4.09;78.91;98923.44;5019850;28;20048;-51
2021/11/26 09:46:28;;;;;;;42.97;23.08;;;;;;;4.19;78.71;98938.66;5018364;28;20053;-52
2021/11/26 09:48:55;;;;;;;45.00;24.00;;;;;;;4.19;78.75;98925.56;5027432;28;20041;-52
2021/11/26 09:51:22;;;;;;;41.95;24.42;;;;;;;4.27;79.62;98919.13;5021627;28;20049;-53
2021/11/26 09:53:49;;;;;;;45.35;23.48;;;;;;;4.36;78.39;98919.56;5009678;28;20053;-54
2021/11/26 09:56:15;;;;;;;39.47;21.80;;;;;;;4.49;77.64;98915.47;5006577;28;20042;-51
2021/11/26 09:58:42;;;;;;;39.75;22.52;;;;;;;4.51;77.18;98912.78;5015173;28;20049;-53
2021/11/26 10:01:10;;;;;;;43.45;22.48;;;;;;;4.43;76.81;98907.03;5024525;28;20065;-52
2021/11/26 10:03:40;;;;;;;38.88;22.15;;;;;;;4.50;77.24;98909.31;5017326;28;20045;-53
2021/11/26 10:06:28;;;;;;;40.97;23.13;;;;;;;4.52;76.97;98902.22;5022419;28;20507;-52
2021/11/26 10:09:05;;;;;;;42.78;21.77;;;;;;;4.51;76.73;98903.16;5025833;28;20056;-54
2021/11/26 10:11:38;;;;;;;41.22;21.70;;;;;;;4.42;76.39;98894.84;5021496;28;20048;-55
2021/11/26 10:14:21;;;;;;;41.13;22.02;;;;;;;4.42;77.79;98887.84;5019749;28;20517;-53
2021/11/26 10:17:15;;;;;;;42.55;22.25;;;;;;;4.48;77.12;98886.72;5024567;28;20081;-53
2021/11/26 10:20:01;;;;;;;40.15;23.05;;;;;;;4.46;77.87;98883.31;5024089;28;20046;-54
2021/11/26 10:22:29;;;;;;;41.22;21.33;;;;;;;4.35;78.08;98881.19;5023117;28;20049;-54
2021/11/26 10:25:15;;;;;;;36.80;21.02;;;;;;;4.34;78.61;98870.78;5019008;28;20495;-53
2021/11/26 10:28:02;;;;;;;44.22;21.52;;;;;;;4.65;85.65;98862.31;5023943;28;20051;-53
2021/11/26 10:30:34;;;;;;;43.78;23.45;;;;;;;4.69;78.15;98856.03;5007630;28;20041;-51
2021/11/26 10:33:09;;;;;;;39.53;21.52;;;;;;;4.74;78.84;98856.63;5016101;28;20069;-52
2021/11/26 10:35:52;;;;;;;39.20;22.80;;;;;;;4.78;79.14;98852.94;5026035;28;20053;-53
2021/11/26 10:38:27;;;;;;;39.45;22.00;;;;;;;4.76;77.31;98844.31;5019216;28;20049;-54
2021/11/26 10:40:56;;;;;;;37.88;21.98;;;;;;;4.74;76.84;98840.91;5018964;28;20045;-54
2021/11/26 10:43:52;;;;;;;41.28;21.73;;;;;;;4.74;78.35;98835.66;5017043;28;20425;-53
2021/11/26 10:59:44;;;;;;;40.92;22.30;;;;;;;4.47;78.77;98791.50;5025524;28;20483;-53
2021/11/26 11:02:36;;;;;;;41.05;23.05;;;;;;;4.46;79.43;98784.56;5015923;28;20056;-55
2021/11/26 11:05:05;;;;;;;41.25;22.85;;;;;;;4.31;81.75;98771.34;5015667;28;20092;-51
2021/11/26 11:07:41;;;;;;;44.45;24.30;;;;;;;4.18;83.20;98778.94;5030005;28;20563;-54
2021/11/26 11:10:08;;;;;;;42.38;22.98;;;;;;;4.11;83.95;98762.63;5021264;28;20097;-52
2021/11/26 11:12:38;;;;;;;44.70;23.80;;;;;;;4.03;85.38;98758.69;5019579;28;20049;-52
2021/11/26 11:15:09;;;;;;;47.03;23.60;;;;;;;3.96;85.87;98759.88;5013173;28;20052;-54
2021/11/26 11:17:36;;;;;;;;;;;;;;;3.87;87.02;98759.38;5028370;28;20041;-52
2021/11/26 11:20:05;;;;;;;44.67;24.02;;;;;;;3.86;86.55;98744.59;5019981;28;19936;-54
2021/11/26 11:22:32;;;;;;;46.22;24.08;;;;;;;3.87;87.91;98746.31;5017464;28;20901;-52
2021/11/26 11:24:59;;;;;;;44.97;23.20;;;;;;;3.83;88.12;98736.88;5015862;28;20057;-53
2021/11/26 11:27:26;;;;;;;43.10;23.75;;;;;;;3.78;87.85;98727.53;5019665;28;20136;-52
2021/11/26 11:29:52;;;;;;;44.17;25.42;;;;;;;3.77;88.28;98731.09;5023386;28;20874;-52
2021/11/26 11:32:19;;;;;;;47.40;24.98;;;;;;;3.71;88.60;98721.75;5024879;28;20836;-53
2021/11/26 11:34:47;;;;;;;47.90;25.58;;;;;;;3.59;89.54;98703.97;5008554;28;20522;-52
2021/11/26 11:37:18;;;;;;;50.15;25.85;;;;;;;3.68;89.31;98718.41;5024938;28;20041;-52
2021/11/26 11:39:51;;;;;;;50.45;27.38;;;;;;;3.68;89.13;98711.41;5024975;28;20042;-53
2021/11/26 11:42:24;;;;;;;48.65;25.70;;;;;;;3.63;90.23;98709.91;5023363;28;20422;-53
2021/11/26 11:45:04;;;;;;;51.15;25.95;;;;;;;3.59;90.42;98701.38;5019623;28;20494;-51